createdAt,value
2024-03-21T00:00:26.573Z,6.8
2024-03-21T00:01:32.979Z,6.9
2024-03-21T00:02:40.061Z,7
2024-03-21T00:03:47.251Z,7
2024-03-21T00:04:54.229Z,6.9
2024-03-21T00:06:01.314Z,7
2024-03-21T00:07:08.072Z,7
2024-03-21T00:08:15.074Z,6.9
2024-03-21T00:09:22.190Z,6.9
2024-03-21T00:10:29.273Z,6.9
2024-03-21T00:11:36.342Z,6.9
2024-03-21T00:12:42.940Z,6.9
2024-03-21T00:13:50.103Z,6.9
2024-03-21T00:14:57.186Z,6.9
2024-03-21T00:16:04.677Z,6.9
2024-03-21T00:17:11.351Z,6.9
2024-03-21T00:18:17.960Z,6.9
2024-03-21T00:20:32.225Z,7
2024-03-21T00:21:41.164Z,7
2024-03-21T00:22:46.438Z,7
2024-03-21T00:23:52.919Z,7.1
2024-03-21T00:25:00.154Z,7
2024-03-21T00:26:07.209Z,7.1
2024-03-21T00:27:14.284Z,7.1
2024-03-21T00:28:21.379Z,7.1
2024-03-21T00:29:27.979Z,7.2
2024-03-21T00:30:35.067Z,7.1
2024-03-21T00:31:42.260Z,7.2
2024-03-21T00:32:49.341Z,7.2
2024-03-21T00:33:56.397Z,7.2
2024-03-21T00:35:03.003Z,7.2
2024-03-21T00:36:10.121Z,7.2
2024-03-21T00:37:17.234Z,7.2
2024-03-21T00:38:24.273Z,7.2
2024-03-21T00:39:31.373Z,7.1
2024-03-21T00:40:37.978Z,7.2
2024-03-21T00:41:45.054Z,7.2
2024-03-21T00:42:52.249Z,7.2
2024-03-21T00:43:59.320Z,7.2
2024-03-21T00:46:13.009Z,7.2
2024-03-21T00:47:20.158Z,7.2
2024-03-21T00:48:27.217Z,7.2
2024-03-21T00:49:36.394Z,7.3
2024-03-21T00:50:41.377Z,7.3
2024-03-21T00:51:48.041Z,7.3
2024-03-21T00:52:55.109Z,7.2
2024-03-21T00:54:02.245Z,7.2
2024-03-21T00:55:09.277Z,7.2
2024-03-21T00:56:16.448Z,7.2
2024-03-21T00:57:23.000Z,7.1
2024-03-21T00:58:30.180Z,7.1
2024-03-21T00:59:37.245Z,7.1
2024-03-21T01:00:44.329Z,7.1
2024-03-21T01:01:51.437Z,7.1
2024-03-21T01:02:58.109Z,7.1
2024-03-21T01:04:05.164Z,7.2
2024-03-21T01:05:12.181Z,7.2
2024-03-21T01:06:19.332Z,7.2
2024-03-21T01:07:26.460Z,7.3
2024-03-21T01:08:33.062Z,7.3
2024-03-21T01:09:40.167Z,7.3
2024-03-21T01:10:47.222Z,7.3
2024-03-21T01:11:54.341Z,7.3
2024-03-21T01:13:01.400Z,7.4
2024-03-21T01:14:08.027Z,7.4
2024-03-21T01:15:15.095Z,7.3
2024-03-21T01:16:22.299Z,7.4
2024-03-21T01:17:29.393Z,7.4
2024-03-21T01:18:35.909Z,7.5
2024-03-21T01:19:43.045Z,7.5
2024-03-21T01:20:50.130Z,7.5
2024-03-21T01:21:57.835Z,7.4
2024-03-21T01:24:11.424Z,7.5
2024-03-21T01:25:18.099Z,7.5
2024-03-21T01:26:25.191Z,7.5
2024-03-21T01:27:32.228Z,7.5
2024-03-21T01:28:39.422Z,7.6
2024-03-21T01:29:46.778Z,7.6
2024-03-21T01:30:53.028Z,7.6
2024-03-21T01:32:00.149Z,7.6
2024-03-21T01:33:07.359Z,7.7
2024-03-21T01:34:14.387Z,7.7
2024-03-21T01:35:21.478Z,7.7
2024-03-21T01:36:28.053Z,7.7
2024-03-21T01:37:35.140Z,7.7
2024-03-21T01:38:42.279Z,7.7
2024-03-21T01:39:49.379Z,7.7
2024-03-21T01:40:56.455Z,7.7
2024-03-21T01:42:03.082Z,7.7
2024-03-21T01:43:10.199Z,7.7
2024-03-21T01:44:17.263Z,7.7
2024-03-21T01:45:24.344Z,7.7
2024-03-21T01:46:31.491Z,7.7
2024-03-21T01:47:38.076Z,7.7
2024-03-21T01:48:45.143Z,7.8
2024-03-21T01:49:52.295Z,7.8
2024-03-21T01:50:59.430Z,7.8
2024-03-21T01:52:06.056Z,7.8
2024-03-21T01:53:13.089Z,7.8
2024-03-21T01:54:20.150Z,7.8
2024-03-21T01:55:27.291Z,7.8
2024-03-21T01:56:34.418Z,7.8
2024-03-21T01:57:40.953Z,7.8
2024-03-21T01:58:48.113Z,7.8
2024-03-21T01:59:55.180Z,7.8
2024-03-21T02:01:02.312Z,7.8
2024-03-21T02:02:09.402Z,7.8
2024-03-21T02:03:16.017Z,7.8
2024-03-21T02:04:23.135Z,7.8
2024-03-21T02:05:30.234Z,7.9
2024-03-21T02:06:37.266Z,7.9
2024-03-21T02:07:44.438Z,7.8
2024-03-21T02:08:51.042Z,7.8
2024-03-21T02:09:58.161Z,7.9
2024-03-21T02:11:05.183Z,8
2024-03-21T02:12:12.290Z,8.1
2024-03-21T02:14:26.107Z,8.2
2024-03-21T02:15:33.115Z,8.2
2024-03-21T02:16:40.231Z,8.2
2024-03-21T02:17:47.310Z,8.3
2024-03-21T02:18:54.412Z,8.3
2024-03-21T02:20:01.054Z,8.3
2024-03-21T02:21:08.107Z,8.3
2024-03-21T02:22:15.204Z,8.3
2024-03-21T02:23:22.293Z,8.3
2024-03-21T02:24:29.430Z,8.2
2024-03-21T02:25:36.074Z,8.2
2024-03-21T02:27:50.380Z,8.1
2024-03-21T02:28:57.387Z,8.1
2024-03-21T02:30:04.423Z,8
2024-03-21T02:31:11.070Z,8
2024-03-21T02:32:18.123Z,8
2024-03-21T02:33:25.317Z,7.9
2024-03-21T02:34:32.359Z,7.8
2024-03-21T02:35:39.452Z,7.9
2024-03-21T02:36:46.122Z,7.8
2024-03-21T02:37:53.182Z,7.8
2024-03-21T02:39:00.450Z,7.8
2024-03-21T02:40:07.368Z,7.8
2024-03-21T02:41:14.454Z,7.8
2024-03-21T02:42:21.096Z,7.8
2024-03-21T02:43:30.137Z,7.8
2024-03-21T02:44:35.247Z,7.9
2024-03-21T02:45:42.345Z,7.8
2024-03-21T02:46:49.526Z,7.8
2024-03-21T02:47:56.103Z,7.8
2024-03-21T02:49:03.269Z,7.8
2024-03-21T02:50:10.783Z,7.8
2024-03-21T02:51:17.386Z,7.8
2024-03-21T02:52:24.523Z,7.8
2024-03-21T02:53:31.026Z,7.8
2024-03-21T02:54:38.192Z,7.7
2024-03-21T02:55:45.272Z,7.7
2024-03-21T02:56:52.366Z,7.7
2024-03-21T02:57:59.490Z,7.7
2024-03-21T02:59:06.070Z,7.7
2024-03-21T03:00:13.135Z,7.7
2024-03-21T03:01:20.299Z,7.6
2024-03-21T03:02:27.418Z,7.5
2024-03-21T03:03:34.460Z,7.5
2024-03-21T03:04:41.049Z,7.5
2024-03-21T03:05:48.172Z,7.5
2024-03-21T03:06:55.281Z,7.5
2024-03-21T03:08:02.429Z,7.5
2024-03-21T03:09:09.033Z,7.4
2024-03-21T03:10:16.076Z,7.4
2024-03-21T03:11:23.180Z,7.4
2024-03-21T03:12:30.297Z,7.3
2024-03-21T03:13:37.483Z,7.3
2024-03-21T03:14:44.010Z,7.3
2024-03-21T03:15:51.171Z,7.3
2024-03-21T03:16:58.204Z,7.3
2024-03-21T03:18:05.320Z,7.2
2024-03-21T03:19:12.458Z,7.2
2024-03-21T03:20:19.058Z,7.2
2024-03-21T03:21:26.151Z,7.2
2024-03-21T03:22:33.260Z,7.1
2024-03-21T03:23:40.374Z,7.1
2024-03-21T03:24:47.460Z,7.1
2024-03-21T03:25:54.612Z,7.2
2024-03-21T03:27:01.202Z,7.1
2024-03-21T03:28:08.238Z,7.1
2024-03-21T03:29:15.282Z,7.1
2024-03-21T03:31:29.046Z,7.1
2024-03-21T03:32:36.154Z,7.1
2024-03-21T03:33:43.228Z,7.1
2024-03-21T03:34:50.358Z,7.1
2024-03-21T03:35:57.428Z,7.1
2024-03-21T03:37:04.090Z,7.1
2024-03-21T03:38:11.124Z,7.1
2024-03-21T03:39:18.233Z,7.1
2024-03-21T03:40:25.344Z,7.1
2024-03-21T03:42:39.096Z,7
2024-03-21T03:43:46.141Z,7
2024-03-21T03:44:53.203Z,7
2024-03-21T03:46:00.306Z,7
2024-03-21T03:47:07.514Z,7
2024-03-21T03:48:14.095Z,7.1
2024-03-21T03:49:21.169Z,7.1
2024-03-21T03:50:28.277Z,7.1
2024-03-21T03:51:35.372Z,7.2
2024-03-21T03:52:42.459Z,7.1
2024-03-21T03:53:49.183Z,7.1
2024-03-21T03:54:56.145Z,7.1
2024-03-21T03:56:03.219Z,7.1
2024-03-21T03:57:10.384Z,7.2
2024-03-21T03:58:17.471Z,7.2
2024-03-21T03:59:24.014Z,7.2
2024-03-21T04:00:31.157Z,7.2
2024-03-21T04:01:38.250Z,7.2
2024-03-21T04:02:45.382Z,7.2
2024-03-21T04:03:52.434Z,7.2
2024-03-21T04:04:59.090Z,7.3
2024-03-21T04:06:06.186Z,7.3
2024-03-21T04:07:13.234Z,7.3
2024-03-21T04:08:20.362Z,7.3
2024-03-21T04:09:27.634Z,7.3
2024-03-21T04:10:34.116Z,7.3
2024-03-21T04:11:41.725Z,7.3
2024-03-21T04:12:48.266Z,7.3
2024-03-21T04:13:55.592Z,7.3
2024-03-21T04:15:02.568Z,7.3
2024-03-21T04:16:09.152Z,7.3
2024-03-21T04:17:16.229Z,7.3
2024-03-21T04:18:23.832Z,7.3
2024-03-21T04:19:30.820Z,7.2
2024-03-21T04:20:37.551Z,7.2
2024-03-21T04:21:44.044Z,7.1
2024-03-21T04:22:51.219Z,7.2
2024-03-21T04:23:58.342Z,7.2
2024-03-21T04:25:05.486Z,7.1
2024-03-21T04:26:12.640Z,7.1
2024-03-21T04:27:19.087Z,7
2024-03-21T04:28:26.187Z,7
2024-03-21T04:29:33.257Z,7
2024-03-21T04:30:40.427Z,7
2024-03-21T04:31:47.070Z,7
2024-03-21T04:32:54.101Z,6.9
2024-03-21T04:35:08.379Z,6.9
2024-03-21T04:36:15.375Z,6.9
2024-03-21T04:37:22.034Z,6.9
2024-03-21T04:38:40.743Z,6.9
2024-03-21T04:39:36.205Z,6.9
2024-03-21T04:40:43.291Z,6.8
2024-03-21T04:41:50.393Z,6.8
2024-03-21T04:42:57.036Z,6.8
2024-03-21T04:44:04.109Z,6.8
2024-03-21T04:45:11.209Z,6.8
2024-03-21T04:46:18.319Z,6.9
2024-03-21T04:47:25.546Z,6.9
2024-03-21T04:48:32.062Z,6.9
2024-03-21T04:49:39.166Z,6.9
2024-03-21T04:50:46.341Z,6.8
2024-03-21T04:51:53.298Z,6.9
2024-03-21T04:53:00.466Z,6.9
2024-03-21T04:54:07.061Z,6.9
2024-03-21T04:55:14.086Z,6.9
2024-03-21T04:56:21.319Z,6.9
2024-03-21T04:57:28.387Z,7
2024-03-21T04:58:35.434Z,7
2024-03-21T04:59:42.006Z,7
2024-03-21T05:00:49.120Z,7
2024-03-21T05:01:56.270Z,7
2024-03-21T05:03:03.391Z,7
2024-03-21T05:04:10.455Z,7
2024-03-21T05:05:17.032Z,7.1
2024-03-21T05:06:24.247Z,7.1
2024-03-21T05:07:31.263Z,7.1
2024-03-21T05:08:38.355Z,7.1
2024-03-21T05:10:52.028Z,7.1
2024-03-21T05:11:59.233Z,7.2
2024-03-21T05:13:06.286Z,7.2
2024-03-21T05:14:13.406Z,7.3
2024-03-21T05:15:20.538Z,7.3
2024-03-21T05:16:27.060Z,7.3
2024-03-21T05:17:34.137Z,7.4
2024-03-21T05:18:41.253Z,7.4
2024-03-21T05:19:48.403Z,7.5
2024-03-21T05:20:55.468Z,7.5
2024-03-21T05:22:02.398Z,7.5
2024-03-21T05:23:09.192Z,7.6
2024-03-21T05:24:17.607Z,7.6
2024-03-21T05:25:23.348Z,7.7
2024-03-21T05:26:30.469Z,7.7
2024-03-21T05:27:37.160Z,7.7
2024-03-21T05:28:44.145Z,7.7
2024-03-21T05:29:51.272Z,7.7
2024-03-21T05:30:58.490Z,7.7
2024-03-21T05:32:05.543Z,7.7
2024-03-21T05:33:12.084Z,7.7
2024-03-21T05:34:19.224Z,7.7
2024-03-21T05:35:26.296Z,7.7
2024-03-21T05:36:33.484Z,7.7
2024-03-21T05:38:47.074Z,7.7
2024-03-21T05:39:54.261Z,7.7
2024-03-21T05:41:01.312Z,7.7
2024-03-21T05:42:08.407Z,7.7
2024-03-21T05:43:15.533Z,7.7
2024-03-21T05:44:22.047Z,7.7
2024-03-21T05:45:29.262Z,7.7
2024-03-21T05:46:36.827Z,7.7
2024-03-21T05:47:43.390Z,7.7
2024-03-21T05:48:50.470Z,7.7
2024-03-21T05:49:57.122Z,7.6
2024-03-21T05:51:04.233Z,7.6
2024-03-21T05:52:11.324Z,7.6
2024-03-21T05:53:18.472Z,7.7
2024-03-21T05:54:25.530Z,7.7
2024-03-21T05:55:32.066Z,7.7
2024-03-21T05:56:39.211Z,7.7
2024-03-21T05:57:46.431Z,7.7
2024-03-21T05:58:53.494Z,7.7
2024-03-21T06:00:00.590Z,7.7
2024-03-21T06:01:07.103Z,7.7
2024-03-21T06:02:14.244Z,7.7
2024-03-21T06:03:21.328Z,7.7
2024-03-21T06:04:28.480Z,7.7
2024-03-21T06:05:35.519Z,7.7
2024-03-21T06:06:42.106Z,7.7
2024-03-21T06:07:49.210Z,7.7
2024-03-21T06:08:56.341Z,7.7
2024-03-21T06:10:03.530Z,7.8
2024-03-21T06:11:10.546Z,7.8
2024-03-21T06:12:17.115Z,7.8
2024-03-21T06:13:24.241Z,7.8
2024-03-21T06:14:31.312Z,7.8
2024-03-21T06:15:39.899Z,7.9
2024-03-21T06:16:45.018Z,8
2024-03-21T06:17:52.203Z,8
2024-03-21T06:18:59.217Z,8
2024-03-21T06:20:06.336Z,8
2024-03-21T06:21:13.464Z,8.1
2024-03-21T06:22:20.034Z,8
2024-03-21T06:23:30.206Z,8.1
2024-03-21T06:24:34.252Z,8.1
2024-03-21T06:25:41.329Z,8.2
2024-03-21T06:26:48.568Z,8.2
2024-03-21T06:27:55.052Z,8.1
2024-03-21T06:29:02.158Z,8.2
2024-03-21T06:30:09.242Z,8.2
2024-03-21T06:31:16.395Z,8.2
2024-03-21T06:32:23.511Z,8.2
2024-03-21T06:33:30.173Z,8.2
2024-03-21T06:34:37.175Z,8.2
2024-03-21T06:35:44.273Z,8.2
2024-03-21T06:36:51.369Z,8.3
2024-03-21T06:39:05.110Z,8.4
2024-03-21T06:40:12.148Z,8.4
2024-03-21T06:42:26.371Z,8.4
2024-03-21T06:43:33.498Z,8.4
2024-03-21T06:44:40.061Z,8.4
2024-03-21T06:45:47.190Z,8.4
2024-03-21T06:46:54.241Z,8.4
2024-03-21T06:48:01.358Z,8.4
2024-03-21T06:49:08.497Z,8.4
2024-03-21T06:50:15.074Z,8.4
2024-03-21T06:51:22.203Z,8.4
2024-03-21T06:52:29.316Z,8.4
2024-03-21T06:53:36.355Z,8.4
2024-03-21T06:54:43.575Z,8.4
2024-03-21T06:55:50.155Z,8.4
2024-03-21T06:56:57.213Z,8.4
2024-03-21T06:58:04.270Z,8.4
2024-03-21T06:59:11.419Z,8.4
2024-03-21T07:00:18.601Z,8.4
2024-03-21T07:01:25.109Z,8.5
2024-03-21T07:02:32.150Z,8.5
2024-03-21T07:03:39.314Z,8.5
2024-03-21T07:04:46.470Z,8.5
2024-03-21T07:05:53.506Z,8.5
2024-03-21T07:07:00.170Z,8.6
2024-03-21T07:08:07.229Z,8.5
2024-03-21T07:09:14.311Z,8.6
2024-03-21T07:10:21.435Z,8.5
2024-03-21T07:11:28.550Z,8.6
2024-03-21T07:12:35.122Z,8.6
2024-03-21T07:13:42.229Z,8.6
2024-03-21T07:14:49.861Z,8.7
2024-03-21T07:15:56.399Z,8.7
2024-03-21T07:17:03.552Z,8.7
2024-03-21T07:18:10.189Z,8.7
2024-03-21T07:19:17.265Z,8.7
2024-03-21T07:20:24.311Z,8.7
2024-03-21T07:21:31.390Z,8.7
2024-03-21T07:22:38.512Z,8.7
2024-03-21T07:23:45.150Z,8.7
2024-03-21T07:24:52.239Z,8.8
2024-03-21T07:26:01.739Z,8.8
2024-03-21T07:27:06.526Z,8.8
2024-03-21T07:28:13.728Z,8.8
2024-03-21T07:29:20.153Z,8.8
2024-03-21T07:30:27.230Z,8.9
2024-03-21T07:31:34.356Z,8.9
2024-03-21T07:32:41.407Z,8.9
2024-03-21T07:33:48.552Z,8.9
2024-03-21T07:34:55.141Z,8.9
2024-03-21T07:36:02.260Z,8.9
2024-03-21T07:37:09.380Z,8.9
2024-03-21T07:38:16.640Z,8.9
2024-03-21T07:39:23.551Z,8.9
2024-03-21T07:40:30.167Z,8.9
2024-03-21T07:41:37.256Z,8.9
2024-03-21T07:42:44.378Z,8.9
2024-03-21T07:43:51.486Z,8.9
2024-03-21T07:46:05.190Z,9
2024-03-21T07:47:12.242Z,9
2024-03-21T07:48:19.381Z,9
2024-03-21T07:49:26.514Z,9
2024-03-21T07:50:33.587Z,9
2024-03-21T07:51:40.205Z,9
2024-03-21T07:52:47.288Z,9
2024-03-21T07:53:54.502Z,9
2024-03-21T07:55:01.439Z,9
2024-03-21T07:56:08.124Z,9.1
2024-03-21T07:57:15.187Z,9
2024-03-21T07:58:22.268Z,9
2024-03-21T07:59:29.440Z,9.1
2024-03-21T08:00:36.494Z,9.1
2024-03-21T08:01:43.037Z,9.1
2024-03-21T08:02:50.256Z,9.1
2024-03-21T08:03:57.308Z,9.1
2024-03-21T08:05:04.365Z,9.1
2024-03-21T08:07:18.090Z,9.2
2024-03-21T08:08:25.270Z,9.2
2024-03-21T08:09:32.295Z,9.2
2024-03-21T08:10:39.531Z,9.2
2024-03-21T08:11:46.531Z,9.2
2024-03-21T08:12:53.165Z,9.2
2024-03-21T08:14:00.287Z,9.2
2024-03-21T08:15:07.292Z,9.2
2024-03-21T08:16:14.398Z,9.2
2024-03-21T08:17:21.502Z,9.2
2024-03-21T08:18:28.118Z,9.2
2024-03-21T08:19:35.264Z,9.2
2024-03-21T08:20:42.280Z,9.2
2024-03-21T08:21:49.414Z,9.2
2024-03-21T08:22:56.597Z,9.2
2024-03-21T08:24:03.109Z,9.2
2024-03-21T08:25:10.274Z,9.2
2024-03-21T08:26:17.409Z,9.2
2024-03-21T08:27:24.604Z,9.2
2024-03-21T08:28:31.561Z,9.2
2024-03-21T08:29:38.134Z,9.2
2024-03-21T08:30:45.259Z,9.2
2024-03-21T08:31:52.333Z,9.2
2024-03-21T08:32:59.419Z,9.3
2024-03-21T08:34:06.603Z,9.3
2024-03-21T08:35:13.166Z,9.3
2024-03-21T08:36:20.248Z,9.3
2024-03-21T08:37:27.357Z,9.3
2024-03-21T08:38:34.422Z,9.2
2024-03-21T08:39:41.523Z,9.2
2024-03-21T08:40:48.192Z,9.2
2024-03-21T08:41:55.274Z,9.2
2024-03-21T08:43:02.875Z,9.2
2024-03-21T08:44:09.483Z,9.3
2024-03-21T08:45:16.573Z,9.3
2024-03-21T08:46:23.273Z,9.3
2024-03-21T08:47:30.271Z,9.3
2024-03-21T08:49:44.519Z,9.3
2024-03-21T08:50:51.516Z,9.4
2024-03-21T08:51:58.157Z,9.4
2024-03-21T08:53:05.298Z,9.4
2024-03-21T08:54:12.361Z,9.4
2024-03-21T08:55:20.625Z,9.4
2024-03-21T08:56:26.616Z,9.4
2024-03-21T08:57:33.108Z,9.4
2024-03-21T08:58:40.311Z,9.4
2024-03-21T08:59:47.379Z,9.4
2024-03-21T09:00:54.421Z,9.4
2024-03-21T09:02:01.660Z,9.4
2024-03-21T09:03:08.212Z,9.4
2024-03-21T09:04:15.279Z,9.4
2024-03-21T09:05:22.343Z,9.4
2024-03-21T09:06:29.521Z,9.5
2024-03-21T09:07:36.056Z,9.5
2024-03-21T09:08:43.150Z,9.5
2024-03-21T09:09:50.319Z,9.5
2024-03-21T09:10:57.370Z,9.5
2024-03-21T09:12:04.493Z,9.6
2024-03-21T09:13:11.116Z,9.6
2024-03-21T09:14:18.197Z,9.6
2024-03-21T09:15:25.276Z,9.6
2024-03-21T09:16:32.407Z,9.6
2024-03-21T09:17:39.585Z,9.6
2024-03-21T09:18:46.077Z,9.6
2024-03-21T09:19:53.180Z,9.6
2024-03-21T09:21:00.275Z,9.6
2024-03-21T09:22:07.386Z,9.6
2024-03-21T09:23:14.497Z,9.7
2024-03-21T09:24:21.110Z,9.6
2024-03-21T09:25:28.264Z,9.6
2024-03-21T09:26:35.318Z,9.6
2024-03-21T09:27:42.411Z,9.6
2024-03-21T09:28:49.499Z,9.6
2024-03-21T09:29:56.100Z,9.6
2024-03-21T09:31:03.155Z,9.6
2024-03-21T09:32:10.392Z,9.6
2024-03-21T09:33:17.446Z,9.6
2024-03-21T09:35:31.104Z,9.7
2024-03-21T09:36:38.322Z,9.7
2024-03-21T09:37:45.347Z,9.7
2024-03-21T09:38:52.450Z,9.7
2024-03-21T09:39:59.568Z,9.7
2024-03-21T09:41:06.165Z,9.7
2024-03-21T09:42:13.190Z,9.7
2024-03-21T09:43:21.197Z,9.7
2024-03-21T09:44:27.416Z,9.7
2024-03-21T09:45:34.515Z,9.7
2024-03-21T09:46:41.120Z,9.7
2024-03-21T09:47:48.265Z,9.7
2024-03-21T09:48:55.364Z,9.7
2024-03-21T09:50:02.474Z,9.7
2024-03-21T09:51:09.556Z,9.7
2024-03-21T09:53:23.207Z,9.7
2024-03-21T09:54:30.363Z,9.8
2024-03-21T09:55:37.484Z,9.8
2024-03-21T09:56:44.543Z,9.8
2024-03-21T09:57:51.155Z,9.9
2024-03-21T09:58:58.309Z,9.9
2024-03-21T10:00:05.332Z,9.9
2024-03-21T10:01:12.449Z,9.9
2024-03-21T10:02:19.586Z,9.9
2024-03-21T10:03:26.317Z,9.9
2024-03-21T10:04:33.302Z,9.9
2024-03-21T10:05:40.327Z,9.9
2024-03-21T10:06:47.438Z,9.9
2024-03-21T10:07:54.560Z,9.9
2024-03-21T10:09:01.195Z,9.9
2024-03-21T10:10:08.245Z,9.9
2024-03-21T10:11:17.323Z,9.9
2024-03-21T10:12:22.479Z,10
2024-03-21T10:13:30.225Z,10
2024-03-21T10:14:36.154Z,10
2024-03-21T10:15:43.230Z,10
2024-03-21T10:16:50.339Z,10
2024-03-21T10:17:57.454Z,10
2024-03-21T10:19:04.571Z,10
2024-03-21T10:20:11.228Z,10.1
2024-03-21T10:21:18.269Z,10.1
2024-03-21T10:22:25.500Z,10.1
2024-03-21T10:23:32.437Z,10.1
2024-03-21T10:24:39.588Z,10.1
2024-03-21T10:25:46.190Z,10.2
2024-03-21T10:26:53.234Z,10.2
2024-03-21T10:28:00.412Z,10.2
2024-03-21T10:29:07.664Z,10.2
2024-03-21T10:30:14.596Z,10.2
2024-03-21T10:31:21.152Z,10.2
2024-03-21T10:32:28.285Z,10.2
2024-03-21T10:33:35.430Z,10.2
2024-03-21T10:34:42.472Z,10.2
2024-03-21T10:35:49.601Z,10.2
2024-03-21T10:36:56.185Z,10.2
2024-03-21T10:38:03.347Z,10.2
2024-03-21T10:39:10.482Z,10.1
2024-03-21T10:40:17.522Z,10.1
2024-03-21T10:41:24.598Z,10.1
2024-03-21T10:42:31.303Z,10.1
2024-03-21T10:43:38.279Z,10
2024-03-21T10:44:45.391Z,10
2024-03-21T10:45:52.479Z,10
2024-03-21T10:46:59.091Z,10
2024-03-21T10:48:06.199Z,10
2024-03-21T10:49:13.320Z,10
2024-03-21T10:50:20.374Z,10
2024-03-21T10:51:27.519Z,10
2024-03-21T10:52:34.089Z,10
2024-03-21T10:53:41.223Z,10
2024-03-21T10:54:48.360Z,10
2024-03-21T10:57:02.539Z,10
2024-03-21T10:58:09.111Z,10
2024-03-21T10:59:17.282Z,10.1
2024-03-21T11:00:23.323Z,10.1
2024-03-21T11:01:30.471Z,10.2
2024-03-21T11:03:44.124Z,10.2
2024-03-21T11:04:51.250Z,10.2
2024-03-21T11:05:58.318Z,10.3
2024-03-21T11:07:05.449Z,10.2
2024-03-21T11:08:12.551Z,10.3
2024-03-21T11:09:19.141Z,10.3
2024-03-21T11:10:26.232Z,10.4
2024-03-21T11:11:33.313Z,10.4
2024-03-21T11:12:40.724Z,10.4
2024-03-21T11:13:47.536Z,10.4
2024-03-21T11:14:54.230Z,10.4
2024-03-21T11:16:01.193Z,10.4
2024-03-21T11:17:08.368Z,10.4
2024-03-21T11:18:15.499Z,10.4
2024-03-21T11:19:23.784Z,10.4
2024-03-21T11:20:29.179Z,10.4
2024-03-21T11:21:36.317Z,10.4
2024-03-21T11:22:43.346Z,10.4
2024-03-21T11:23:50.443Z,10.4
2024-03-21T11:24:57.598Z,10.4
2024-03-21T11:26:04.263Z,10.4
2024-03-21T11:27:11.210Z,10.4
2024-03-21T11:28:18.366Z,10.4
2024-03-21T11:29:25.496Z,10.4
2024-03-21T11:30:32.581Z,10.3
2024-03-21T11:31:39.403Z,10.3
2024-03-21T11:32:46.253Z,10.3
2024-03-21T11:33:53.343Z,10.3
2024-03-21T11:35:00.523Z,10.2
2024-03-21T11:36:07.569Z,10.2
2024-03-21T11:37:14.153Z,10.2
2024-03-21T11:38:21.239Z,10.2
2024-03-21T11:39:28.401Z,10.2
2024-03-21T11:40:35.451Z,10.2
2024-03-21T11:41:42.556Z,10.2
2024-03-21T11:42:49.222Z,10.2
2024-03-21T11:43:56.383Z,10.2
2024-03-21T11:45:03.440Z,10.2
2024-03-21T11:46:10.581Z,10.3
2024-03-21T11:47:17.603Z,10.3
2024-03-21T11:48:24.192Z,10.3
2024-03-21T11:49:31.291Z,10.3
2024-03-21T11:50:38.493Z,10.3
2024-03-21T11:51:45.478Z,10.3
2024-03-21T11:52:52.694Z,10.3
2024-03-21T11:53:59.191Z,10.2
2024-03-21T11:55:06.305Z,10.2
2024-03-21T11:56:13.432Z,10.1
2024-03-21T11:57:21.072Z,10.1
2024-03-21T11:58:27.658Z,10.1
2024-03-21T12:00:41.268Z,10.1
2024-03-21T12:01:48.510Z,10
2024-03-21T12:02:55.492Z,10
2024-03-21T12:04:02.139Z,10
2024-03-21T12:05:09.256Z,10
2024-03-21T12:06:16.380Z,10
2024-03-21T12:07:23.471Z,10
2024-03-21T12:08:30.512Z,10
2024-03-21T12:09:37.094Z,10
2024-03-21T12:10:44.232Z,10
2024-03-21T12:11:51.321Z,10
2024-03-21T12:12:58.497Z,10
2024-03-21T12:14:05.648Z,10
2024-03-21T12:15:12.118Z,10
2024-03-21T12:16:19.324Z,10.1
2024-03-21T12:17:26.441Z,10.1
2024-03-21T12:18:33.432Z,10.1
2024-03-21T12:19:40.722Z,10.2
2024-03-21T12:20:47.178Z,10.3
2024-03-21T12:21:54.220Z,10.4
2024-03-21T12:23:01.353Z,10.5
2024-03-21T12:24:08.556Z,10.5
2024-03-21T12:25:15.656Z,10.7
2024-03-21T12:26:22.209Z,10.7
2024-03-21T12:27:29.234Z,10.8
2024-03-21T12:28:36.302Z,10.9
2024-03-21T12:29:43.464Z,10.9
2024-03-21T12:30:50.507Z,11
2024-03-21T12:31:57.211Z,11
2024-03-21T12:33:04.204Z,11
2024-03-21T12:34:11.347Z,11
2024-03-21T12:35:18.476Z,10.9
2024-03-21T12:36:25.605Z,10.9
2024-03-21T12:37:32.100Z,10.9
2024-03-21T12:38:39.238Z,10.9
2024-03-21T12:39:46.443Z,10.9
2024-03-21T12:40:53.457Z,10.9
2024-03-21T12:42:00.561Z,10.9
2024-03-21T12:43:07.200Z,10.8
2024-03-21T12:44:14.261Z,10.8
2024-03-21T12:45:21.415Z,10.8
2024-03-21T12:46:28.479Z,10.8
2024-03-21T12:47:35.613Z,10.8
2024-03-21T12:48:42.358Z,10.8
2024-03-21T12:49:49.288Z,10.8
2024-03-21T12:50:56.395Z,10.8
2024-03-21T12:52:03.459Z,10.8
2024-03-21T12:53:10.763Z,10.8
2024-03-21T12:54:17.144Z,10.8
2024-03-21T12:55:24.324Z,10.8
2024-03-21T12:56:31.424Z,10.8
2024-03-21T12:57:38.481Z,10.8
2024-03-21T12:58:45.629Z,10.8
2024-03-21T12:59:52.125Z,10.8
2024-03-21T13:00:59.315Z,10.8
2024-03-21T13:02:06.609Z,10.8
2024-03-21T13:04:20.600Z,10.8
2024-03-21T13:05:27.172Z,10.8
2024-03-21T13:06:34.259Z,10.9
2024-03-21T13:07:41.412Z,10.9
2024-03-21T13:08:48.489Z,10.9
2024-03-21T13:09:55.679Z,10.9
2024-03-21T13:11:02.163Z,10.9
2024-03-21T13:12:09.287Z,10.9
2024-03-21T13:13:16.473Z,10.9
2024-03-21T13:14:23.519Z,10.9
2024-03-21T13:15:30.689Z,10.9
2024-03-21T13:16:37.152Z,10.9
2024-03-21T13:17:44.282Z,10.8
2024-03-21T13:18:53.503Z,10.8
2024-03-21T13:19:58.533Z,10.8
2024-03-21T13:21:05.713Z,10.8
2024-03-21T13:22:12.171Z,10.8
2024-03-21T13:23:19.346Z,10.8
2024-03-21T13:24:26.512Z,10.8
2024-03-21T13:25:33.500Z,10.7
2024-03-21T13:26:40.707Z,10.7
2024-03-21T13:27:47.179Z,10.7
2024-03-21T13:28:54.314Z,10.7
2024-03-21T13:30:01.395Z,10.7
2024-03-21T13:31:08.558Z,10.7
2024-03-21T13:32:15.121Z,10.7
2024-03-21T13:33:22.251Z,10.7
2024-03-21T13:34:29.349Z,10.7
2024-03-21T13:35:36.474Z,10.7
2024-03-21T13:36:43.497Z,10.7
2024-03-21T13:37:50.216Z,10.7
2024-03-21T13:38:57.323Z,10.7
2024-03-21T13:40:04.363Z,10.7
2024-03-21T13:41:11.413Z,10.7
2024-03-21T13:42:18.567Z,10.7
2024-03-21T13:43:25.158Z,10.8
2024-03-21T13:44:32.233Z,10.8
2024-03-21T13:45:39.352Z,10.8
2024-03-21T13:46:46.449Z,10.8
2024-03-21T13:47:53.593Z,10.8
2024-03-21T13:49:00.203Z,10.8
2024-03-21T13:50:07.258Z,10.8
2024-03-21T13:51:14.304Z,10.8
2024-03-21T13:52:21.426Z,10.8
2024-03-21T13:53:37.059Z,10.8
2024-03-21T13:54:35.136Z,10.8
2024-03-21T13:55:42.204Z,10.8
2024-03-21T13:56:49.361Z,10.8
2024-03-21T13:57:56.498Z,10.8
2024-03-21T13:59:03.526Z,10.8
2024-03-21T14:00:11.053Z,10.9
2024-03-21T14:01:17.569Z,10.9
2024-03-21T14:02:24.364Z,10.9
2024-03-21T14:03:31.479Z,10.9
2024-03-21T14:04:38.569Z,10.9
2024-03-21T14:05:45.154Z,10.9
2024-03-21T14:07:59.411Z,10.9
2024-03-21T14:09:06.531Z,10.9
2024-03-21T14:10:13.556Z,10.9
2024-03-21T14:11:20.202Z,10.9
2024-03-21T14:12:27.289Z,10.9
2024-03-21T14:13:34.403Z,10.9
2024-03-21T14:14:41.451Z,10.9
2024-03-21T14:15:48.620Z,10.8
2024-03-21T14:16:55.163Z,10.8
2024-03-21T14:18:03.683Z,10.8
2024-03-21T14:19:09.430Z,10.8
2024-03-21T14:20:16.566Z,10.8
2024-03-21T14:21:23.583Z,10.8
2024-03-21T14:22:30.168Z,10.8
2024-03-21T14:23:37.294Z,10.8
2024-03-21T14:24:44.395Z,10.8
2024-03-21T14:25:51.514Z,10.8
2024-03-21T14:26:58.728Z,10.7
2024-03-21T14:28:05.189Z,10.7
2024-03-21T14:29:12.327Z,10.8
2024-03-21T14:30:19.715Z,10.8
2024-03-21T14:31:26.534Z,10.8
2024-03-21T14:32:33.626Z,10.8
2024-03-21T14:33:40.230Z,10.8
2024-03-21T14:34:47.363Z,10.8
2024-03-21T14:35:54.384Z,10.8
2024-03-21T14:37:01.561Z,10.8
2024-03-21T14:38:08.120Z,10.8
2024-03-21T14:39:15.219Z,10.8
2024-03-21T14:40:22.331Z,10.8
2024-03-21T14:41:32.839Z,10.8
2024-03-21T14:42:36.554Z,10.8
2024-03-21T14:43:43.082Z,10.8
2024-03-21T14:44:53.171Z,10.8
2024-03-21T14:45:57.402Z,10.8
2024-03-21T14:47:04.449Z,10.8
2024-03-21T14:48:11.572Z,10.8
2024-03-21T14:49:18.149Z,10.7
2024-03-21T14:50:25.178Z,10.7
2024-03-21T14:51:32.333Z,10.7
2024-03-21T14:52:39.421Z,10.7
2024-03-21T14:53:46.581Z,10.6
2024-03-21T14:54:53.114Z,10.5
2024-03-21T14:56:00.298Z,10.5
2024-03-21T14:57:07.433Z,10.5
2024-03-21T14:58:14.450Z,10.4
2024-03-21T14:59:21.658Z,10.4
2024-03-21T15:00:28.190Z,10.4
2024-03-21T15:01:35.229Z,10.4
2024-03-21T15:02:42.346Z,10.3
2024-03-21T15:03:49.461Z,10.3
2024-03-21T15:04:56.559Z,10.3
2024-03-21T15:06:03.146Z,10.3
2024-03-21T15:07:10.259Z,10.3
2024-03-21T15:08:17.385Z,10.3
2024-03-21T15:09:24.416Z,10.3
2024-03-21T15:11:38.178Z,10.2
2024-03-21T15:12:45.270Z,10.1
2024-03-21T15:13:52.369Z,10.1
2024-03-21T15:14:59.466Z,10.1
2024-03-21T15:16:06.624Z,10
2024-03-21T15:17:13.201Z,9.9
2024-03-21T15:18:20.387Z,9.8
2024-03-21T15:19:27.378Z,9.8
2024-03-21T15:20:34.528Z,9.7
2024-03-21T15:21:41.578Z,9.7
2024-03-21T15:22:48.252Z,9.6
2024-03-21T15:23:55.375Z,9.6
2024-03-21T15:25:02.416Z,9.6
2024-03-21T15:26:09.551Z,9.5
2024-03-21T15:27:16.702Z,9.5
2024-03-21T15:28:23.197Z,9.6
2024-03-21T15:29:30.260Z,9.6
2024-03-21T15:30:37.406Z,9.6
2024-03-21T15:31:44.530Z,9.6
2024-03-21T15:32:51.605Z,9.6
2024-03-21T15:33:58.208Z,9.6
2024-03-21T15:35:10.535Z,9.7
2024-03-21T15:36:12.407Z,9.6
2024-03-21T15:37:19.484Z,9.5
2024-03-21T15:38:26.641Z,9.5
2024-03-21T15:39:33.191Z,9.4
2024-03-21T15:40:40.356Z,9.3
2024-03-21T15:41:47.429Z,9.3
2024-03-21T15:42:55.956Z,9.3
2024-03-21T15:44:01.566Z,9.3